Time;durP1;ratioP1;P1;durP2;ratioP2;P2;SDS_P1;SDS_P2;PMS_P1;PMS_P2;Temp;Humidity;BMP_temperature;BMP_pressure;BME280_temperature;BME280_humidity;BME280_pressure;Samples;Min_cycle;Max_cycle;Signal;HPM_P1;HPM_P2
2022/06/28 00:00:25;;;;;;;5.00;3.08;;;;;;;24.70;59.54;100746.75;2115900;27;20074;-74
2022/06/28 00:01:48;;;;;;;9.07;3.35;;;;;;;24.70;59.37;100738.63;2107268;28;20044;-74
2022/06/28 00:03:11;;;;;;;9.18;3.38;;;;;;;24.69;59.32;100743.16;2103127;28;20100;-75
2022/06/28 00:04:34;;;;;;;6.93;3.33;;;;;;;24.70;59.29;100750.31;2110715;28;20073;-74
2022/06/28 00:05:55;;;;;;;6.22;3.33;;;;;;;24.70;59.55;100754.84;2101874;28;20040;-75
2022/06/28 00:07:18;;;;;;;7.95;3.55;;;;;;;24.70;59.32;100746.75;2105319;28;20535;-74
2022/06/28 00:08:41;;;;;;;5.70;2.92;;;;;;;24.69;59.38;100744.97;2109989;28;20135;-75
2022/06/28 00:10:05;;;;;;;7.53;3.20;;;;;;;24.67;59.48;100738.78;2102575;28;20459;-74
2022/06/28 00:11:26;;;;;;;6.63;3.42;;;;;;;24.67;59.52;100744.19;2109287;28;20450;-74
2022/06/28 00:12:50;;;;;;;9.38;3.20;;;;;;;24.65;59.89;100743.38;2103902;28;20101;-74
2022/06/28 00:16:10;;;;;;;8.43;3.58;;;;;;;24.61;59.88;100748.03;2104702;28;20079;-74
2022/06/28 00:17:34;;;;;;;9.95;4.40;;;;;;;24.60;60.05;100739.06;2118966;27;20054;-74
2022/06/28 00:18:56;;;;;;;4.20;3.05;;;;;;;24.59;60.09;100740.00;2112280;28;20106;-74
2022/06/28 00:20:18;;;;;;;9.98;3.67;;;;;;;24.61;60.24;100731.81;2104426;28;20111;-74
2022/06/28 00:21:40;;;;;;;7.70;3.45;;;;;;;24.60;60.17;100732.78;2110216;28;20415;-74
2022/06/28 00:23:01;;;;;;;7.53;3.35;;;;;;;24.60;60.52;100713.88;2109289;28;20436;-74
2022/06/28 00:24:24;;;;;;;5.97;3.47;;;;;;;24.60;60.40;100721.97;2110810;28;20043;-74
2022/06/28 00:25:47;;;;;;;6.90;3.30;;;;;;;24.58;60.78;100727.44;2103043;28;20040;-75
2022/06/28 00:27:08;;;;;;;7.65;3.53;;;;;;;24.58;60.88;100722.03;2118084;27;20055;-74
2022/06/28 00:28:31;;;;;;;9.55;3.65;;;;;;;24.57;61.05;100714.88;2110996;28;20570;-74
2022/06/28 00:29:52;;;;;;;5.82;3.13;;;;;;;24.57;60.91;100716.69;2093068;28;20044;-74
2022/06/28 00:31:15;;;;;;;11.82;3.80;;;;;;;24.57;61.05;100709.47;2092296;28;20070;-74
2022/06/28 00:32:39;;;;;;;7.78;4.15;;;;;;;24.58;61.13;100718.44;2102002;28;20056;-74
2022/06/28 00:34:00;;;;;;;8.73;4.30;;;;;;;24.58;61.00;100715.75;2093939;28;20052;-74
2022/06/28 00:35:24;;;;;;;8.10;3.95;;;;;;;24.58;61.03;100719.31;2099547;28;20059;-74
2022/06/28 00:36:46;;;;;;;10.10;4.70;;;;;;;24.57;60.83;100717.56;2105142;28;20590;-75
2022/06/28 00:38:09;;;;;;;7.78;3.83;;;;;;;24.58;61.01;100727.44;2101543;28;20067;-74
2022/06/28 00:39:31;;;;;;;6.60;3.42;;;;;;;24.57;60.90;100714.88;2122851;27;20604;-74
2022/06/28 00:40:54;;;;;;;5.57;2.97;;;;;;;24.57;61.16;100716.69;2107599;27;20663;-74
2022/06/28 00:42:17;;;;;;;8.63;3.85;;;;;;;24.56;61.05;100717.63;2117577;27;20043;-74
2022/06/28 00:43:40;;;;;;;6.43;3.45;;;;;;;24.56;61.34;100720.31;2103299;28;20067;-74
2022/06/28 00:45:04;;;;;;;9.35;3.95;;;;;;;24.55;61.35;100714.03;2108114;28;20043;-74
2022/06/28 00:46:27;;;;;;;12.43;3.60;;;;;;;24.54;61.50;100720.41;2093071;28;20040;-74
2022/06/28 00:47:50;;;;;;;14.10;4.68;;;;;;;24.54;61.66;100715.03;2107527;28;20062;-74
2022/06/28 00:49:14;;;;;;;12.45;4.18;;;;;;;24.54;62.02;100711.44;2095537;28;20033;-74
2022/06/28 00:50:37;;;;;;;7.00;3.83;;;;;;;24.54;61.81;100717.72;2098090;28;20048;-74
2022/06/28 00:52:02;;;;;;;13.00;4.15;;;;;;;24.54;62.16;100722.22;2097348;28;20063;-74
2022/06/28 00:53:24;;;;;;;10.55;3.92;;;;;;;24.54;62.04;100727.63;2108204;28;20039;-74
2022/06/28 00:54:46;;;;;;;8.18;3.95;;;;;;;24.53;62.20;100725.88;2110389;28;20056;-74
2022/06/28 00:56:07;;;;;;;9.43;4.55;;;;;;;24.53;62.40;100729.44;2101196;28;20048;-74
2022/06/28 00:57:30;;;;;;;7.05;3.75;;;;;;;24.52;62.52;100722.28;2096761;28;20040;-74
2022/06/28 00:58:55;;;;;;;8.68;4.00;;;;;;;24.52;62.42;100714.19;2110509;28;20047;-74
2022/06/28 01:00:17;;;;;;;9.00;4.30;;;;;;;24.51;62.80;100731.31;2104864;28;20131;-74
2022/06/28 01:01:39;;;;;;;;;;;;;;;24.49;62.75;100722.41;2094013;28;20060;-74
2022/06/28 01:03:02;;;;;;;5.32;2.75;;;;;;;24.46;62.97;100722.56;2091245;28;19955;-74
2022/06/28 01:04:25;;;;;;;7.55;4.25;;;;;;;24.45;62.93;100723.50;2109037;28;20058;-74
2022/06/28 01:05:49;;;;;;;9.77;4.35;;;;;;;24.44;62.91;100710.94;2101093;28;20048;-74
2022/06/28 01:07:12;;;;;;;9.13;4.28;;;;;;;24.44;63.11;100723.53;2095563;28;20094;-74
2022/06/28 01:08:35;;;;;;;6.93;4.00;;;;;;;24.42;63.10;100718.22;2107157;28;20054;-74
2022/06/28 01:09:58;;;;;;;8.02;3.97;;;;;;;24.40;63.18;100714.72;2104593;28;20203;-74
2022/06/28 01:11:20;;;;;;;8.90;3.92;;;;;;;24.40;63.09;100719.22;2107710;28;20058;-74
2022/06/28 01:12:47;;;;;;;10.82;4.82;;;;;;;24.39;63.21;100712.97;2096141;28;20133;-74
2022/06/28 01:14:10;;;;;;;9.27;4.28;;;;;;;24.40;63.19;100713.84;2098351;28;20033;-75
2022/06/28 01:16:03;;;;;;;8.60;4.72;;;;;;;24.38;63.08;100713.00;2109110;28;20032;-74
2022/06/28 01:17:26;;;;;;;11.23;4.18;;;;;;;24.38;63.41;100713.00;2099588;28;20147;-74
2022/06/28 01:18:58;;;;;;;9.60;4.47;;;;;;;24.38;63.56;100713.00;2103521;28;20039;-74
2022/06/28 01:20:30;;;;;;;11.32;4.28;;;;;;;24.37;63.53;100711.25;2105322;28;20139;-74
2022/06/28 01:22:12;;;;;;;14.30;4.65;;;;;;;24.36;63.86;100715.78;2099297;28;20044;-74
2022/06/28 01:23:36;;;;;;;8.57;3.88;;;;;;;24.36;64.11;100706.78;2099395;28;20054;-74
2022/06/28 01:25:17;;;;;;;10.77;5.15;;;;;;;24.35;64.23;100724.81;2107528;28;20051;-74
2022/06/28 01:26:42;;;;;;;12.52;4.35;;;;;;;24.36;64.28;100720.28;2093156;28;20048;-74
2022/06/28 01:28:08;;;;;;;9.80;4.10;;;;;;;24.36;64.29;100710.38;2083208;28;20489;-73
2022/06/28 01:29:31;;;;;;;14.05;4.20;;;;;;;24.35;64.49;100708.63;2100806;28;20052;-74
2022/06/28 01:31:21;;;;;;;9.00;4.20;;;;;;;24.33;64.56;100712.34;2107771;28;20050;-74
2022/06/28 01:32:44;;;;;;;18.70;5.20;;;;;;;24.32;64.49;100718.66;2095705;28;20067;-74
2022/06/28 01:34:09;;;;;;;12.13;4.80;;;;;;;24.33;64.55;100704.25;2099240;28;20423;-74
2022/06/28 01:35:32;;;;;;;8.20;4.15;;;;;;;24.30;64.41;100705.22;2111985;28;20481;-74
2022/06/28 01:36:54;;;;;;;10.27;4.32;;;;;;;24.31;64.54;100717.78;2104865;28;20052;-74
2022/06/28 01:38:19;;;;;;;15.68;4.80;;;;;;;24.32;64.70;100713.28;2096148;28;20475;-74
2022/06/28 01:39:42;;;;;;;11.95;4.95;;;;;;;24.32;64.83;100707.88;2107497;28;20075;-74
2022/06/28 01:41:04;;;;;;;9.13;4.85;;;;;;;24.31;64.82;100703.41;2111046;28;20044;-73
2022/06/28 01:42:28;;;;;;;10.23;4.63;;;;;;;24.29;65.01;100695.38;2097541;28;20040;-74
2022/06/28 01:43:51;;;;;;;12.38;4.07;;;;;;;24.29;64.96;100698.06;2107167;28;20584;-75
2022/06/28 01:45:14;;;;;;;8.32;4.85;;;;;;;24.30;65.00;100693.56;2100017;28;20065;-74
2022/06/28 01:46:38;;;;;;;9.98;4.47;;;;;;;24.31;65.19;100704.28;2086817;28;20507;-74
2022/06/28 01:48:05;;;;;;;13.30;5.28;;;;;;;24.29;65.40;100698.06;2115347;27;20047;-74
2022/06/28 01:49:46;;;;;;;10.77;4.50;;;;;;;24.28;65.56;100700.88;2107439;28;20540;-74
2022/06/28 01:51:10;;;;;;;11.10;5.00;;;;;;;24.26;65.54;100700.91;2097797;28;20094;-74
2022/06/28 01:52:31;;;;;;;7.05;3.70;;;;;;;24.26;65.55;100702.75;2095778;28;20159;-74
2022/06/28 01:54:03;;;;;;;19.48;6.10;;;;;;;24.25;65.59;100696.47;2092372;28;21460;-74
2022/06/28 01:55:31;;;;;;;8.50;4.10;;;;;;;24.22;65.78;100700.16;2103047;28;20125;-73
2022/06/28 01:56:54;;;;;;;10.52;4.25;;;;;;;24.22;65.91;100683.09;2098350;28;20049;-74
2022/06/28 01:58:19;;;;;;;11.52;4.72;;;;;;;24.23;65.83;100692.94;2093174;28;20440;-74
2022/06/28 01:59:42;;;;;;;9.45;4.50;;;;;;;24.23;65.83;100693.81;2101289;28;20048;-74
2022/06/28 02:01:15;;;;;;;10.15;4.43;;;;;;;24.21;65.73;100689.44;2103657;28;20082;-74
2022/06/28 02:02:39;;;;;;;10.13;4.10;;;;;;;24.23;65.79;100703.72;2097011;28;20080;-74
2022/06/28 02:04:41;;;;;;;7.78;4.65;;;;;;;24.21;65.87;100693.03;2103232;28;20732;-75
2022/06/28 02:06:03;;;;;;;10.40;4.65;;;;;;;24.21;65.63;100694.84;2106012;28;20036;-75
2022/06/28 02:07:25;;;;;;;10.73;4.30;;;;;;;24.20;65.63;100701.19;2093519;28;20520;-75
2022/06/28 02:08:48;;;;;;;10.45;4.43;;;;;;;24.18;65.81;100695.81;2107335;28;20043;-75
2022/06/28 02:10:17;;;;;;;9.30;4.53;;;;;;;24.17;65.98;100691.34;2105722;28;20480;-75
2022/06/28 02:11:42;;;;;;;9.68;4.50;;;;;;;24.18;65.89;100701.19;2095248;28;20492;-75
2022/06/28 02:13:04;;;;;;;12.07;5.35;;;;;;;24.18;66.15;100701.19;2087166;28;20033;-74
2022/06/28 02:14:27;;;;;;;11.02;4.68;;;;;;;24.18;66.34;100700.31;2100660;28;20419;-75
2022/06/28 02:15:52;;;;;;;9.32;4.90;;;;;;;24.18;66.29;100701.19;2103615;28;20098;-74
2022/06/28 02:17:15;;;;;;;8.00;4.20;;;;;;;24.17;66.44;100699.44;2092604;28;20546;-74
2022/06/28 02:18:38;;;;;;;11.15;4.85;;;;;;;24.17;66.52;100699.44;2098105;28;20135;-74
2022/06/28 02:20:03;;;;;;;10.07;4.72;;;;;;;24.17;66.50;100702.13;2100216;28;20106;-74
2022/06/28 02:21:25;;;;;;;7.10;3.72;;;;;;;24.18;66.80;100697.63;2098831;28;20044;-74
2022/06/28 02:22:47;;;;;;;11.13;4.82;;;;;;;24.18;66.62;100697.63;2108043;28;20040;-74
2022/06/28 02:24:11;;;;;;;7.82;4.88;;;;;;;24.17;66.86;100691.34;2097522;28;20195;-74
2022/06/28 02:25:34;;;;;;;11.35;4.65;;;;;;;24.16;66.61;100681.50;2101541;28;20342;-74
2022/06/28 02:26:57;;;;;;;13.15;4.57;;;;;;;24.16;66.85;100689.59;2093325;28;20146;-75
2022/06/28 02:28:20;;;;;;;8.63;4.07;;;;;;;24.15;66.88;100686.97;2091275;28;20045;-74
2022/06/28 02:29:42;;;;;;;8.93;4.30;;;;;;;24.14;66.98;100682.50;2094935;28;20463;-74
2022/06/28 02:31:08;;;;;;;10.10;4.70;;;;;;;24.14;66.74;100683.41;2114002;28;20507;-74
2022/06/28 02:32:32;;;;;;;8.40;3.22;;;;;;;24.12;66.77;100671.78;2099934;28;20032;-74
2022/06/28 02:33:54;;;;;;;12.57;4.85;;;;;;;24.13;66.55;100664.56;2098909;28;20048;-74
2022/06/28 02:40:24;;;;;;;9.25;4.35;;;;;;;24.12;66.52;100668.19;2112945;28;20059;-75
2022/06/28 02:41:46;;;;;;;13.15;5.82;;;;;;;24.11;66.47;100664.63;2099864;28;20106;-74
2022/06/28 02:43:10;;;;;;;10.82;4.85;;;;;;;24.12;66.12;100668.19;2088429;28;20075;-74
2022/06/28 02:44:33;;;;;;;12.07;4.57;;;;;;;24.10;66.36;100664.69;2109211;28;20492;-74
2022/06/28 02:45:57;;;;;;;10.75;4.93;;;;;;;24.11;66.59;100661.03;2109280;28;20470;-74
2022/06/28 02:47:18;;;;;;;9.95;5.30;;;;;;;24.11;66.59;100661.94;2106565;28;20059;-74
2022/06/28 02:48:40;;;;;;;11.75;4.55;;;;;;;24.11;66.77;100669.13;2095666;28;20044;-74
2022/06/28 02:50:02;;;;;;;12.07;4.22;;;;;;;24.12;66.80;100673.59;2100114;28;20040;-74
2022/06/28 02:51:25;;;;;;;11.98;4.53;;;;;;;24.12;66.88;100673.59;2099087;28;20060;-75
2022/06/28 02:52:48;;;;;;;9.52;4.80;;;;;;;24.11;66.84;100669.13;2105282;28;20039;-74
2022/06/28 02:54:09;;;;;;;8.57;4.40;;;;;;;24.11;66.98;100671.84;2094517;28;20117;-74
2022/06/28 02:55:32;;;;;;;9.32;4.00;;;;;;;24.10;67.25;100675.47;2105467;28;20104;-74
2022/06/28 02:56:56;;;;;;;10.15;4.45;;;;;;;24.08;67.23;100672.88;2100040;28;20734;-74
2022/06/28 02:58:20;;;;;;;11.05;5.72;;;;;;;24.10;67.28;100670.06;2101693;28;20048;-75
2022/06/28 02:59:41;;;;;;;11.75;5.75;;;;;;;24.07;67.47;100668.41;2097137;28;20056;-74
2022/06/28 03:01:04;;;;;;;9.10;4.65;;;;;;;24.08;67.54;100671.97;2102825;28;20519;-74
2022/06/28 03:02:27;;;;;;;8.13;4.18;;;;;;;24.07;67.54;100670.22;2094633;28;20052;-74
2022/06/28 03:03:50;;;;;;;10.98;4.68;;;;;;;24.07;67.59;100671.09;2100779;28;20146;-74
2022/06/28 03:05:15;;;;;;;8.98;5.50;;;;;;;24.07;67.46;100676.50;2096566;28;20430;-74
2022/06/28 03:06:38;;;;;;;8.18;4.28;;;;;;;24.09;67.54;100673.75;2092857;28;20398;-74
2022/06/28 03:08:00;;;;;;;8.65;4.32;;;;;;;24.09;67.36;100679.97;2092391;28;20789;-75
2022/06/28 03:09:24;;;;;;;8.60;4.75;;;;;;;24.10;67.45;100678.16;2093842;28;20051;-74
2022/06/28 03:10:47;;;;;;;15.18;4.53;;;;;;;24.11;67.69;100682.63;2094245;28;20405;-74
2022/06/28 03:12:08;;;;;;;11.35;3.92;;;;;;;24.11;67.60;100688.91;2091826;28;20064;-74
2022/06/28 03:13:32;;;;;;;7.30;4.57;;;;;;;24.12;67.65;100687.97;2105600;28;20138;-74
2022/06/28 03:14:55;;;;;;;9.90;4.53;;;;;;;24.13;67.44;100691.53;2097269;28;20044;-74
2022/06/28 03:16:18;;;;;;;12.82;4.88;;;;;;;24.15;67.32;100689.66;2100642;28;20040;-74
2022/06/28 03:17:40;;;;;;;8.55;5.03;;;;;;;24.17;67.36;100693.16;2094351;28;20044;-75
2022/06/28 03:19:02;;;;;;;10.35;5.03;;;;;;;24.18;67.44;100700.31;2091806;28;20078;-73
2022/06/28 03:20:25;;;;;;;10.35;4.65;;;;;;;24.20;67.56;100698.47;2108560;28;20138;-74
2022/06/28 03:21:48;;;;;;;8.05;4.60;;;;;;;24.22;67.57;100702.84;2099389;28;20076;-75
2022/06/28 03:23:11;;;;;;;7.35;4.30;;;;;;;24.25;67.40;100693.75;2099768;28;20036;-74
2022/06/28 03:24:32;;;;;;;8.55;4.40;;;;;;;24.29;67.18;100684.59;2106338;28;20062;-74
2022/06/28 03:25:55;;;;;;;11.45;5.95;;;;;;;24.33;66.91;100698.84;2093939;28;20040;-74
2022/06/28 03:27:17;;;;;;;8.93;4.22;;;;;;;24.37;66.75;100690.53;2098069;28;20078;-74
2022/06/28 03:28:41;;;;;;;8.40;4.72;;;;;;;24.42;66.12;100688.53;2104739;28;20127;-74
2022/06/28 03:30:03;;;;;;;7.80;3.85;;;;;;;24.49;65.67;100689.13;2093568;28;20036;-74
2022/06/28 03:31:26;;;;;;;8.20;3.78;;;;;;;24.56;65.07;100698.72;2107281;28;20155;-74
2022/06/28 03:32:48;;;;;;;6.07;3.88;;;;;;;24.63;65.08;100702.91;2107306;28;20048;-74
2022/06/28 03:34:19;;;;;;;6.72;3.92;;;;;;;24.70;65.04;100698.13;2103418;28;20059;-74
2022/06/28 03:35:42;;;;;;;8.15;3.47;;;;;;;24.76;64.99;100697.84;2110221;28;20081;-74
2022/06/28 03:37:05;;;;;;;8.70;4.40;;;;;;;24.83;64.89;100711.03;2105519;28;20464;-75
2022/06/28 03:38:35;;;;;;;8.13;3.95;;;;;;;24.91;64.81;100716.13;2100709;28;20160;-74
2022/06/28 03:40:20;;;;;;;11.73;4.20;;;;;;;24.99;64.50;100722.09;2110551;28;20718;-75
2022/06/28 03:41:43;;;;;;;9.45;4.47;;;;;;;25.08;64.39;100728.88;2099193;28;20070;-74
2022/06/28 03:43:07;;;;;;;9.55;4.30;;;;;;;25.16;64.42;100716.78;2104442;28;20043;-74
2022/06/28 03:44:32;;;;;;;9.68;4.03;;;;;;;25.23;64.38;100706.56;2111189;28;20054;-74
2022/06/28 03:45:56;;;;;;;6.07;3.88;;;;;;;25.30;64.45;100714.34;2099233;28;20044;-74
2022/06/28 03:47:37;;;;;;;8.15;3.92;;;;;;;25.39;64.26;100707.63;2106864;28;20056;-74
2022/06/28 03:49:32;;;;;;;7.53;3.88;;;;;;;25.48;64.12;100722.53;2096625;28;20064;-74
2022/06/28 03:51:04;;;;;;;9.30;3.97;;;;;;;25.54;64.07;100723.13;2104104;28;20722;-74
2022/06/28 03:52:37;;;;;;;9.02;4.32;;;;;;;25.63;63.94;100724.56;2106225;28;20047;-74
2022/06/28 03:54:01;;;;;;;10.45;4.25;;;;;;;25.71;63.53;100722.38;2104042;28;20411;-74
2022/06/28 03:55:30;;;;;;;13.95;4.63;;;;;;;25.79;63.43;100718.38;2103216;28;20044;-74
2022/06/28 03:56:54;;;;;;;9.60;4.25;;;;;;;25.88;63.35;100714.31;2088377;28;20060;-74
2022/06/28 03:58:17;;;;;;;8.75;4.35;;;;;;;25.95;63.23;100720.31;2097795;28;20828;-75
2022/06/28 03:59:43;;;;;;;10.02;4.28;;;;;;;26.03;63.00;100719.00;2088196;28;20049;-74
2022/06/28 04:01:06;;;;;;;10.50;3.85;;;;;;;26.10;62.64;100724.97;2093538;28;20136;-74
2022/06/28 04:02:28;;;;;;;10.32;4.20;;;;;;;26.19;62.53;100719.09;2108195;28;20050;-75
2022/06/28 04:03:50;;;;;;;10.80;4.35;;;;;;;26.30;62.29;100707.78;2096961;28;20605;-74
2022/06/28 04:05:13;;;;;;;6.70;3.63;;;;;;;26.37;62.11;100722.78;2106514;28;20040;-74
2022/06/28 04:06:36;;;;;;;7.32;3.78;;;;;;;26.46;61.67;100716.88;2104253;28;20044;-74
2022/06/28 04:07:59;;;;;;;10.38;3.60;;;;;;;26.56;61.62;100710.03;2106316;28;20075;-74
2022/06/28 04:09:32;;;;;;;7.07;4.00;;;;;;;26.67;61.11;100710.38;2095648;28;20150;-74
2022/06/28 04:11:13;;;;;;;9.70;4.10;;;;;;;26.75;60.71;100727.09;2099952;28;20143;-74
2022/06/28 04:12:37;;;;;;;8.70;4.95;;;;;;;26.84;60.66;100721.22;2098591;28;20052;-74
2022/06/28 04:14:13;;;;;;;13.18;4.53;;;;;;;26.95;60.10;100715.25;2110514;28;20135;-74
2022/06/28 04:15:38;;;;;;;5.43;3.35;;;;;;;27.06;59.91;100722.81;2096296;28;20560;-74
2022/06/28 04:17:05;;;;;;;7.25;3.72;;;;;;;27.15;59.71;100712.34;2099970;28;20078;-74
2022/06/28 04:18:48;;;;;;;8.45;3.10;;;;;;;27.22;58.86;100699.34;2104171;28;20046;-75
2022/06/28 04:20:23;;;;;;;8.88;3.25;;;;;;;27.28;58.33;100709.88;2093074;28;20083;-74
2022/06/28 04:21:56;;;;;;;8.38;3.72;;;;;;;27.37;58.13;100707.50;2101369;28;20077;-74
2022/06/28 04:23:18;;;;;;;9.68;3.55;;;;;;;27.53;57.75;100713.00;2093118;28;20056;-74
2022/06/28 04:24:41;;;;;;;10.82;3.70;;;;;;;27.67;57.46;100701.38;2093129;28;20580;-74
2022/06/28 04:26:09;;;;;;;10.10;3.78;;;;;;;27.86;56.76;100699.38;2106789;28;20044;-74
2022/06/28 04:27:35;;;;;;;6.90;2.75;;;;;;;28.02;55.81;100689.41;2097172;28;20040;-75
2022/06/28 04:28:59;;;;;;;10.00;3.20;;;;;;;28.16;54.92;100706.78;2109103;27;20043;-74
2022/06/28 04:30:25;;;;;;;9.25;3.63;;;;;;;28.28;54.48;100696.06;2095975;28;20451;-74
2022/06/28 04:31:56;;;;;;;8.77;3.60;;;;;;;28.41;53.88;100697.09;2099579;28;20051;-74
2022/06/28 04:33:18;;;;;;;7.28;3.47;;;;;;;28.53;53.61;100692.75;2103141;28;20577;-74
2022/06/28 04:34:41;;;;;;;8.95;3.53;;;;;;;28.68;53.52;100693.69;2092519;28;20058;-74
2022/06/28 04:36:05;;;;;;;12.15;3.70;;;;;;;28.83;53.05;100693.66;2098729;28;20055;-74
2022/06/28 04:37:29;;;;;;;8.95;2.83;;;;;;;28.98;52.54;100691.84;2091993;28;20396;-74
2022/06/28 04:38:56;;;;;;;8.50;3.08;;;;;;;29.12;51.62;100686.41;2090242;28;20051;-74
2022/06/28 04:40:22;;;;;;;4.60;2.30;;;;;;;29.25;50.72;100689.25;2081728;28;20083;-74
2022/06/28 04:41:57;;;;;;;6.90;3.30;;;;;;;29.35;50.28;100690.41;2107969;28;20152;-75
2022/06/28 04:43:23;;;;;;;8.50;3.47;;;;;;;29.46;50.09;100674.31;2095260;28;20056;-74
2022/06/28 04:44:45;;;;;;;4.70;2.97;;;;;;;29.59;49.80;100685.28;2091759;28;20043;-74
2022/06/28 04:46:12;;;;;;;9.82;3.47;;;;;;;29.72;49.68;100680.78;2116282;27;20035;-74
2022/06/28 04:47:42;;;;;;;5.18;2.60;;;;;;;29.89;49.12;100693.28;2096895;28;20797;-74
2022/06/28 04:49:05;;;;;;;8.15;3.42;;;;;;;30.00;48.74;100693.47;2097200;28;20051;-74
2022/06/28 04:50:37;;;;;;;9.95;3.60;;;;;;;30.10;48.79;100694.63;2101668;28;20070;-74
2022/06/28 04:52:00;;;;;;;6.28;3.30;;;;;;;30.23;48.69;100702.84;2098668;28;20044;-74
2022/06/28 04:53:28;;;;;;;8.77;3.45;;;;;;;30.45;48.54;100694.97;2093537;28;20102;-75
2022/06/28 04:54:51;;;;;;;7.55;3.13;;;;;;;30.57;48.26;100698.75;2098291;28;20084;-74
2022/06/28 04:56:33;;;;;;;9.68;3.45;;;;;;;30.66;48.17;100709.00;2100689;28;20047;-74
2022/06/28 04:57:55;;;;;;;8.55;3.35;;;;;;;30.77;47.75;100701.84;2096642;28;20102;-75
2022/06/28 04:59:17;;;;;;;7.45;3.28;;;;;;;30.90;47.76;100720.97;2101727;28;20052;-74
2022/06/28 05:00:40;;;;;;;8.68;3.47;;;;;;;31.04;47.22;100720.00;2107118;28;20495;-75
2022/06/28 05:02:10;;;;;;;8.32;4.07;;;;;;;31.13;47.16;100709.31;2098494;28;20052;-74
2022/06/28 05:03:34;;;;;;;8.10;4.22;;;;;;;31.23;46.82;100712.28;2091279;28;20099;-74
2022/06/28 05:04:59;;;;;;;6.57;3.50;;;;;;;31.45;46.78;100712.47;2097212;28;20546;-74
2022/06/28 05:06:31;;;;;;;8.85;3.40;;;;;;;31.60;46.40;100711.41;2101460;28;20480;-75
2022/06/28 05:07:55;;;;;;;10.80;5.07;;;;;;;31.73;46.24;100708.66;2106000;28;20040;-74
2022/06/28 05:09:21;;;;;;;5.68;3.55;;;;;;;31.83;46.05;100708.88;2096262;28;20058;-75
2022/06/28 05:10:46;;;;;;;10.00;3.55;;;;;;;31.95;45.97;100707.94;2099161;28;20445;-74
2022/06/28 05:12:29;;;;;;;11.32;3.60;;;;;;;32.17;45.52;100708.09;2104982;28;20423;-75
2022/06/28 05:13:50;;;;;;;9.00;3.35;;;;;;;32.26;44.75;100690.16;2102042;28;20130;-74
2022/06/28 05:15:13;;;;;;;13.63;3.65;;;;;;;32.30;44.81;100697.13;2088548;28;20036;-75
2022/06/28 05:16:59;;;;;;;10.45;3.45;;;;;;;32.33;44.47;100697.78;2102149;28;20506;-73
2022/06/28 05:18:22;;;;;;;6.00;2.97;;;;;;;32.43;44.18;100701.53;2093002;28;20063;-74
2022/06/28 05:19:46;;;;;;;6.90;3.47;;;;;;;32.57;43.88;100685.94;2098552;28;20560;-74
2022/06/28 05:21:09;;;;;;;8.18;3.50;;;;;;;32.67;43.20;100687.00;2097482;28;20045;-74
2022/06/28 05:22:33;;;;;;;7.20;3.58;;;;;;;32.73;43.03;100698.34;2092773;28;20044;-73
2022/06/28 05:24:18;;;;;;;8.57;3.25;;;;;;;32.91;42.63;100698.75;2097631;28;20222;-74
2022/06/28 05:25:46;;;;;;;8.70;3.45;;;;;;;32.96;42.12;100699.25;2095852;28;20634;-74
2022/06/28 05:27:09;;;;;;;6.45;3.17;;;;;;;32.88;42.39;100701.75;2095748;28;20084;-74
2022/06/28 05:28:34;;;;;;;6.95;3.58;;;;;;;33.02;42.23;100706.09;2096529;28;20052;-74
2022/06/28 05:29:57;;;;;;;8.82;3.38;;;;;;;33.07;42.33;100702.03;2090080;28;20049;-73
2022/06/28 05:31:20;;;;;;;8.63;3.80;;;;;;;33.15;42.00;100702.28;2109322;28;20130;-74
2022/06/28 05:32:43;;;;;;;10.68;3.13;;;;;;;33.28;41.74;100687.69;2094998;28;20044;-74
2022/06/28 05:34:06;;;;;;;9.05;3.30;;;;;;;33.37;41.59;100706.09;2104936;28;20036;-74
2022/06/28 05:35:30;;;;;;;10.45;3.85;;;;;;;33.49;41.91;100710.56;2098734;28;20044;-74
2022/06/28 05:36:52;;;;;;;10.45;3.20;;;;;;;33.60;41.50;100696.88;2100073;28;20082;-73
2022/06/28 05:38:15;;;;;;;8.20;3.38;;;;;;;33.54;41.26;100709.19;2092354;28;20045;-73
2022/06/28 05:39:36;;;;;;;6.97;3.50;;;;;;;33.52;41.04;100696.63;2091192;28;20306;-73
2022/06/28 05:40:59;;;;;;;11.32;3.30;;;;;;;33.48;40.95;100704.22;2107705;27;20078;-74
2022/06/28 05:42:21;;;;;;;10.52;3.42;;;;;;;33.51;40.65;100697.63;2096530;28;20044;-74
2022/06/28 05:43:44;;;;;;;7.70;3.40;;;;;;;33.51;40.82;100695.75;2098711;28;20055;-74
2022/06/28 05:45:08;;;;;;;8.55;3.38;;;;;;;33.47;40.87;100685.19;2093380;28;20071;-74
2022/06/28 05:46:30;;;;;;;10.20;3.25;;;;;;;33.53;40.66;100687.44;2092372;28;20040;-74
2022/06/28 05:47:52;;;;;;;6.10;2.95;;;;;;;33.56;40.81;100668.88;2098441;28;20074;-73
2022/06/28 05:49:15;;;;;;;8.88;3.50;;;;;;;33.65;40.62;100680.94;2106065;28;20050;-74
2022/06/28 05:50:39;;;;;;;7.80;3.75;;;;;;;33.75;40.41;100676.47;2096373;28;20055;-74
2022/06/28 05:52:01;;;;;;;8.00;3.03;;;;;;;33.85;40.35;100668.38;2104207;28;20047;-73
2022/06/28 05:53:24;;;;;;;10.13;3.30;;;;;;;33.94;39.94;100652.03;2100704;28;20052;-74
2022/06/28 05:54:46;;;;;;;6.55;3.03;;;;;;;33.99;39.66;100663.50;2103553;28;20055;-74
2022/06/28 05:56:09;;;;;;;10.23;3.75;;;;;;;34.01;39.92;100656.00;2097683;28;20045;-73
2022/06/28 05:57:31;;;;;;;10.52;3.75;;;;;;;34.05;40.30;100662.09;2098374;28;20753;-76
2022/06/28 05:58:54;;;;;;;10.35;3.30;;;;;;;33.86;40.74;100648.19;2102660;28;20476;-75
2022/06/28 06:00:17;;;;;;;8.13;3.33;;;;;;;33.39;41.82;100652.09;2109332;28;20529;-74
2022/06/28 06:01:40;;;;;;;12.15;3.35;;;;;;;32.85;42.91;100644.53;2089235;28;20098;-73
2022/06/28 06:03:04;;;;;;;6.10;3.60;;;;;;;32.63;43.49;100650.78;2115907;27;20051;-74
2022/06/28 06:04:25;;;;;;;7.35;3.08;;;;;;;32.49;43.67;100655.59;2107218;28;20127;-74
2022/06/28 06:05:50;;;;;;;6.25;3.08;;;;;;;32.31;43.98;100656.00;2102917;28;20606;-73
2022/06/28 06:07:13;;;;;;;14.63;3.85;;;;;;;32.11;44.47;100664.81;2105648;28;20046;-73
2022/06/28 06:08:35;;;;;;;5.93;2.83;;;;;;;32.11;44.61;100669.41;2098268;28;20138;-75
2022/06/28 06:09:58;;;;;;;8.23;3.15;;;;;;;31.97;45.33;100675.91;2091147;28;20450;-74
2022/06/28 06:11:21;;;;;;;8.35;3.47;;;;;;;31.84;45.44;100689.59;2100721;28;20060;-74
2022/06/28 06:12:43;;;;;;;9.52;3.42;;;;;;;31.76;45.44;100693.91;2094477;28;20041;-74
2022/06/28 06:14:06;;;;;;;8.27;3.40;;;;;;;31.84;45.62;100707.84;2100871;28;20048;-74
2022/06/28 06:15:29;;;;;;;10.48;3.75;;;;;;;32.04;45.48;100694.47;2103347;28;20051;-74
2022/06/28 06:16:52;;;;;;;13.73;3.42;;;;;;;32.10;45.42;100701.31;2089292;28;20049;-73
2022/06/28 06:18:14;;;;;;;16.88;3.70;;;;;;;32.04;45.58;100691.72;2109066;28;20511;-74
2022/06/28 06:19:36;;;;;;;12.25;4.40;;;;;;;31.97;45.80;100689.56;2102670;28;20446;-74
2022/06/28 06:21:00;;;;;;;11.48;3.38;;;;;;;31.82;46.13;100685.25;2095960;28;20048;-74
2022/06/28 06:22:23;;;;;;;10.40;3.63;;;;;;;31.73;46.30;100684.06;2117403;27;20788;-74
2022/06/28 06:23:45;;;;;;;8.13;3.72;;;;;;;31.83;46.17;100681.56;2100077;28;20040;-74
2022/06/28 06:25:21;;;;;;;6.88;3.03;;;;;;;31.83;46.21;100692.47;2113046;28;20847;-73
2022/06/28 06:26:44;;;;;;;5.57;3.47;;;;;;;31.83;46.23;100692.47;2096995;28;20049;-73
2022/06/28 06:28:06;;;;;;;7.35;3.63;;;;;;;31.74;46.68;100694.03;2109349;28;20052;-73
2022/06/28 06:29:29;;;;;;;10.60;3.58;;;;;;;31.64;46.90;100702.00;2105506;28;20068;-73
2022/06/28 06:30:53;;;;;;;10.68;3.20;;;;;;;31.60;46.84;100697.75;2097316;28;20111;-73
2022/06/28 06:32:27;;;;;;;9.18;2.92;;;;;;;31.63;46.21;100703.00;2112569;28;20046;-72
2022/06/28 06:34:10;;;;;;;7.80;4.07;;;;;;;31.76;45.97;100723.97;2074444;28;20054;-73
2022/06/28 06:35:37;;;;;;;8.75;3.00;;;;;;;31.90;45.88;100715.63;2097155;28;20040;-73
2022/06/28 06:37:01;;;;;;;7.20;3.17;;;;;;;32.10;45.16;100723.19;2108895;28;20047;-74
2022/06/28 06:38:24;;;;;;;8.63;3.08;;;;;;;32.02;44.88;100734.72;2097398;28;20048;-73
2022/06/28 06:39:48;;;;;;;7.10;2.75;;;;;;;32.09;45.06;100735.13;2094684;28;20045;-74
2022/06/28 06:41:10;;;;;;;7.07;3.38;;;;;;;32.24;44.70;100735.84;2100172;28;20078;-74